Time;durP1;ratioP1;P1;durP2;ratioP2;P2;SDS_P1;SDS_P2;PMS_P1;PMS_P2;Temp;Humidity;BMP_temperature;BMP_pressure;BME280_temperature;BME280_humidity;BME280_pressure;Samples;Min_cycle;Max_cycle;Signal;HPM_P1;HPM_P2
2023/10/09 00:04:20;;;;;;;8.90;4.10;;;;;;;0.70;76.23;100677.93;220385;1257;141245;-79
2023/10/09 00:09:50;;;;;;;6.30;3.90;;;;;;;0.68;75.73;100662.73;220462;1257;139131;-78
2023/10/09 00:15:07;;;;;;;7.40;4.40;;;;;;;0.75;76.66;100640.71;219801;1256;138941;-76
2023/10/09 00:20:31;;;;;;;12.50;4.30;;;;;;;0.82;76.58;100640.81;217953;1257;139690;-73
2023/10/09 00:25:36;;;;;;;6.50;4.30;;;;;;;0.80;76.30;100632.86;218406;1260;140116;-82
2023/10/09 00:30:43;;;;;;;7.90;5.10;;;;;;;0.81;76.61;100621.59;218795;1257;139015;-80
2023/10/09 00:35:54;;;;;;;8.80;4.40;;;;;;;0.88;77.23;100613.20;218799;1258;139687;-79
2023/10/09 00:41:09;;;;;;;9.50;5.00;;;;;;;0.92;77.06;100615.90;218039;1256;140006;-80
2023/10/09 00:51:26;;;;;;;8.10;5.10;;;;;;;0.99;77.48;100600.17;218237;1258;140214;-73
2023/10/09 00:56:38;;;;;;;13.00;5.40;;;;;;;1.05;77.61;100589.69;218408;1257;140722;-73
2023/10/09 01:01:56;;;;;;;10.60;4.20;;;;;;;1.12;77.83;100587.24;218053;1256;139679;-72
2023/10/09 01:07:25;;;;;;;10.40;7.10;;;;;;;1.17;78.18;100599.02;218032;1260;139271;-78
2023/10/09 01:12:29;;;;;;;6.50;5.50;;;;;;;1.23;78.42;100600.63;217913;1256;139867;-77
2023/10/09 01:17:38;;;;;;;8.00;5.50;;;;;;;1.24;78.36;100585.59;217906;1256;139490;-76
2023/10/09 01:22:43;;;;;;;14.70;6.30;;;;;;;1.23;78.43;100582.91;217844;1257;138934;-75
2023/10/09 01:27:48;;;;;;;10.50;5.90;;;;;;;1.28;78.89;100576.45;218529;1260;140069;-77
2023/10/09 01:32:57;;;;;;;8.70;4.90;;;;;;;1.35;78.85;100570.36;218302;1257;139947;-74
2023/10/09 01:38:10;;;;;;;13.70;6.80;;;;;;;1.35;78.76;100572.44;219338;1257;140442;-74
2023/10/09 01:43:18;;;;;;;10.80;7.40;;;;;;;1.37;78.94;100570.15;219129;1257;140713;-74
2023/10/09 01:48:24;;;;;;;17.60;8.60;;;;;;;1.41;79.10;100568.34;219726;1257;139975;-75
2023/10/09 01:53:30;;;;;;;12.80;7.00;;;;;;;1.48;79.25;100559.36;218830;1260;139780;-72
2023/10/09 01:58:35;;;;;;;12.10;6.00;;;;;;;1.52;79.24;100548.11;220318;1257;139237;-72
2023/10/09 02:03:42;;;;;;;11.50;8.50;;;;;;;1.51;78.80;100541.91;219556;1257;139263;-73
2023/10/09 02:08:49;;;;;;;14.30;7.20;;;;;;;1.54;79.16;100541.54;217855;1257;140144;-72
2023/10/09 02:14:00;;;;;;;15.20;8.20;;;;;;;1.61;79.22;100537.92;218440;1257;140844;-71
2023/10/09 02:19:08;;;;;;;10.10;6.70;;;;;;;1.67;79.47;100541.80;219770;1257;140283;-73
2023/10/09 02:24:27;;;;;;;13.20;7.00;;;;;;;1.66;79.14;100546.98;218354;1257;140325;-73
2023/10/09 02:29:38;;;;;;;12.80;7.80;;;;;;;1.65;79.28;100558.64;218467;1257;140533;-73
2023/10/09 02:34:46;;;;;;;11.60;6.90;;;;;;;1.66;79.13;100552.99;217656;1260;140372;-75
2023/10/09 02:39:52;;;;;;;13.00;8.10;;;;;;;1.63;79.37;100541.91;217694;1256;139919;-76
2023/10/09 02:44:58;;;;;;;9.50;6.30;;;;;;;1.61;79.61;100528.27;217944;1257;141848;-77
2023/10/09 02:50:19;;;;;;;14.20;8.30;;;;;;;1.58;79.72;100517.58;217784;1256;236304;-75
2023/10/09 02:55:28;;;;;;;13.10;8.30;;;;;;;1.60;79.55;100514.52;218159;1257;139333;-76
2023/10/09 03:00:36;;;;;;;17.00;6.80;;;;;;;1.61;79.91;100512.80;218904;1256;139859;-77
2023/10/09 03:05:42;;;;;;;11.10;6.60;;;;;;;1.61;79.78;100507.38;218887;1258;140237;-77
2023/10/09 03:10:47;;;;;;;10.30;6.60;;;;;;;1.62;79.91;100498.31;217840;1256;139216;-75
2023/10/09 03:15:51;;;;;;;15.00;6.90;;;;;;;1.66;79.97;100493.44;219582;1256;140529;-76
2023/10/09 03:20:56;;;;;;;12.40;6.10;;;;;;;1.69;80.19;100484.85;217997;1260;139947;-74
2023/10/09 03:26:01;;;;;;;12.70;7.40;;;;;;;1.74;80.42;100472.45;218135;1256;140336;-74
2023/10/09 03:31:24;;;;;;;9.80;7.30;;;;;;;1.83;80.84;100464.48;219062;1257;139418;-74
2023/10/09 03:36:30;;;;;;;12.20;6.50;;;;;;;1.91;81.14;100452.77;219311;1257;138706;-77
2023/10/09 03:41:41;;;;;;;10.10;5.80;;;;;;;1.99;80.96;100456.44;220223;1257;139789;-72
2023/10/09 03:46:46;;;;;;;10.90;5.60;;;;;;;2.07;81.19;100447.39;218576;1256;140060;-71
2023/10/09 03:51:52;;;;;;;11.50;6.20;;;;;;;2.10;81.17;100434.60;220187;1256;141401;-70
2023/10/09 03:56:58;;;;;;;11.80;6.60;;;;;;;2.11;81.23;100435.76;219819;1256;140213;-68
2023/10/09 04:02:04;;;;;;;7.20;5.00;;;;;;;2.16;81.21;100437.29;218891;1257;139461;-67
2023/10/09 04:07:09;;;;;;;7.30;5.80;;;;;;;2.22;81.22;100438.93;219786;1256;140344;-68
2023/10/09 04:12:20;;;;;;;13.60;7.20;;;;;;;2.29;81.24;100432.23;219009;1257;138943;-68
2023/10/09 04:17:34;;;;;;;8.10;6.20;;;;;;;2.37;81.51;100412.90;219278;1257;140103;-70
2023/10/09 04:23:35;;;;;;;14.60;6.50;;;;;;;2.41;81.61;100391.54;217517;1258;141152;-75
2023/10/09 04:28:09;;;;;;;17.40;8.90;;;;;;;2.39;81.77;100370.80;218203;1257;140353;-74
2023/10/09 04:38:34;;;;;;;14.20;9.10;;;;;;;2.42;82.15;100341.96;218066;1260;125758;-73
2023/10/09 04:43:44;;;;;;;13.00;8.80;;;;;;;2.47;82.42;100332.88;218810;1260;140465;-72
2023/10/09 04:48:52;;;;;;;9.20;6.80;;;;;;;2.54;82.49;100319.19;217973;1257;140431;-69
2023/10/09 04:54:12;;;;;;;11.40;6.40;;;;;;;2.57;82.44;100302.99;219369;1257;141014;-70
2023/10/09 04:59:25;;;;;;;13.50;7.40;;;;;;;2.61;82.40;100291.91;219917;1256;141075;-71
2023/10/09 05:04:41;;;;;;;9.60;6.90;;;;;;;2.67;82.34;100289.58;218106;1256;139080;-68
2023/10/09 05:10:08;;;;;;;12.20;7.40;;;;;;;2.76;82.44;100289.87;219065;1256;139314;-73
2023/10/09 05:15:14;;;;;;;14.40;7.00;;;;;;;2.83;82.45;100298.04;218135;1256;140849;-71
2023/10/09 05:31:15;;;;;;;11.30;6.40;;;;;;;3.09;82.59;100298.28;218705;1256;139349;-73
2023/10/09 05:41:47;;;;;;;10.60;6.40;;;;;;;3.23;82.43;100301.96;219207;1255;140633;-71
2023/10/09 06:14:02;;;;;;;11.40;8.00;;;;;;;3.58;82.43;100268.23;218412;1254;140582;-69
2023/10/09 06:19:25;;;;;;;9.20;6.40;;;;;;;3.66;82.43;100265.14;218807;1254;139647;-68
2023/10/09 06:25:17;;;;;;;9.00;5.10;;;;;;;3.77;82.57;100261.77;219467;1254;139731;-65
2023/10/09 06:35:30;;;;;;;9.50;7.00;;;;;;;4.04;82.67;100263.58;218683;1256;139408;-65
2023/10/09 06:45:58;;;;;;;10.90;6.40;;;;;;;4.28;82.51;100255.94;218553;1255;142596;-66
2023/10/09 07:07:16;;;;;;;11.10;7.80;;;;;;;4.87;82.76;100230.08;219396;1254;139350;-69
2023/10/09 07:12:25;;;;;;;9.20;5.90;;;;;;;5.00;82.62;100232.83;218529;1254;139578;-72
2023/10/09 07:22:56;;;;;;;8.20;5.80;;;;;;;5.28;82.52;100242.23;219288;1256;140047;-70
2023/10/09 07:28:03;;;;;;;11.70;5.90;;;;;;;5.42;81.75;100241.92;218811;1254;139513;-74
2023/10/09 07:38:28;;;;;;;7.20;5.10;;;;;;;5.69;81.90;100239.04;219329;1253;140660;-66
2023/10/09 07:43:39;;;;;;;6.30;5.00;;;;;;;5.85;81.85;100249.26;220168;1253;139487;-68
2023/10/09 07:48:53;;;;;;;5.10;3.60;;;;;;;6.02;81.76;100256.55;218678;1254;139319;-67
2023/10/09 07:54:08;;;;;;;7.70;3.90;;;;;;;6.17;81.43;100254.61;220009;1254;139475;-67
2023/10/09 07:59:17;;;;;;;5.50;5.00;;;;;;;6.38;81.30;100264.86;218897;1257;139171;-66
2023/10/09 08:04:47;;;;;;;8.90;4.40;;;;;;;6.61;81.46;100270.92;219151;1255;139310;-76
2023/10/09 08:15:20;;;;;;;18.50;10.60;;;;;;;6.84;80.78;100263.70;219443;1257;139406;-71
2023/10/09 08:20:36;;;;;;;8.50;5.50;;;;;;;6.92;80.76;100257.51;218316;1254;140427;-73
2023/10/09 08:25:57;;;;;;;6.00;3.40;;;;;;;7.01;80.80;100263.17;218513;1254;140652;-69
2023/10/09 08:31:18;;;;;;;6.70;3.90;;;;;;;7.07;80.50;100258.31;218100;1254;140319;-72
2023/10/09 08:36:28;;;;;;;9.50;3.80;;;;;;;7.15;80.25;100247.00;218556;1254;139402;-71
2023/10/09 08:41:37;;;;;;;5.30;2.90;;;;;;;7.24;80.40;100235.29;217863;1259;139785;-72
2023/10/09 08:46:43;;;;;;;4.20;3.10;;;;;;;7.36;80.21;100229.14;217891;1254;141238;-74
2023/10/09 08:51:53;;;;;;;4.80;3.40;;;;;;;7.43;79.96;100232.45;218237;1254;140687;-70
2023/10/09 08:56:59;;;;;;;4.60;3.40;;;;;;;7.51;80.02;100231.70;218180;1254;140105;-67
2023/10/09 09:02:04;;;;;;;4.10;2.20;;;;;;;7.64;79.99;100240.89;219000;1256;139160;-70
2023/10/09 09:07:31;;;;;;;3.30;2.40;;;;;;;7.78;79.83;100249.35;218256;1254;139439;-73
2023/10/09 09:12:40;;;;;;;4.90;2.40;;;;;;;7.80;79.22;100251.96;218745;1256;139973;-76
2023/10/09 09:17:49;;;;;;;3.90;2.80;;;;;;;7.85;79.43;100245.23;219063;1254;140499;-74
2023/10/09 09:22:58;;;;;;;2.90;2.50;;;;;;;7.95;79.46;100234.11;218655;1254;140563;-71
2023/10/09 09:28:12;;;;;;;3.30;2.20;;;;;;;8.08;79.01;100229.00;218402;1254;140532;-71
2023/10/09 09:33:32;;;;;;;3.10;1.40;;;;;;;8.14;78.98;100226.09;218846;1253;139343;-74
2023/10/09 09:38:52;;;;;;;3.10;1.50;;;;;;;8.23;78.76;100205.36;220285;1256;141013;-68
2023/10/09 09:44:00;;;;;;;3.10;2.00;;;;;;;8.40;78.45;100193.86;220494;1253;139663;-72
2023/10/09 09:49:16;;;;;;;1.20;1.10;;;;;;;8.62;77.89;100193.73;219885;1254;140660;-71
2023/10/09 09:54:24;;;;;;;2.40;1.40;;;;;;;8.89;77.91;100181.91;219199;1254;141100;-69
2023/10/09 09:59:35;;;;;;;2.10;1.20;;;;;;;9.18;77.32;100183.09;219278;1254;139870;-72
2023/10/09 10:16:19;;;;;;;1.50;1.40;;;;;;;9.58;75.42;100164.05;194935;1273;971634;-67
2023/10/09 10:26:37;;;;;;;3.40;1.10;;;;;;;9.65;74.82;100162.56;216443;1268;139720;-69
2023/10/09 10:32:08;;;;;;;1.40;1.10;;;;;;;9.77;74.82;100147.79;216094;1270;141200;-69
2023/10/09 10:37:13;;;;;;;1.30;1.00;;;;;;;9.90;74.40;100138.20;216148;1268;140034;-70
2023/10/09 10:42:36;;;;;;;1.60;1.30;;;;;;;9.86;73.58;100126.84;216286;1272;141807;-69
2023/10/09 10:47:41;;;;;;;1.30;1.20;;;;;;;9.91;73.62;100116.89;216734;1269;140335;-68
2023/10/09 10:52:57;;;;;;;1.40;1.10;;;;;;;10.03;73.71;100120.45;215848;1268;139400;-70
2023/10/09 10:58:13;;;;;;;4.20;1.30;;;;;;;10.24;73.56;100132.52;216143;1267;744264;-69
2023/10/09 11:03:29;;;;;;;1.60;1.20;;;;;;;10.37;72.99;100127.54;216380;1271;140692;-68
2023/10/09 11:08:35;;;;;;;1.80;1.40;;;;;;;10.37;72.48;100129.56;216070;1270;139981;-67
2023/10/09 11:13:53;;;;;;;1.50;1.30;;;;;;;10.42;72.25;100138.37;217048;1267;139686;-68
2023/10/09 11:19:03;;;;;;;2.00;1.20;;;;;;;10.51;72.04;100137.13;217041;1268;139937;-67
2023/10/09 11:24:24;;;;;;;2.00;1.30;;;;;;;10.61;71.95;100127.50;216490;1269;139723;-67
2023/10/09 11:35:09;;;;;;;2.70;0.90;;;;;;;10.62;70.58;100122.88;217416;1269;141257;-68
2023/10/09 11:46:11;;;;;;;2.30;1.10;;;;;;;10.87;71.03;100117.85;217820;1267;140595;-68
2023/10/09 11:51:19;;;;;;;1.30;0.90;;;;;;;11.04;70.72;100105.31;216330;1271;140748;-68
2023/10/09 11:56:27;;;;;;;1.20;1.10;;;;;;;11.19;70.47;100095.48;218748;1267;139702;-71
2023/10/09 12:01:35;;;;;;;1.70;1.10;;;;;;;11.36;70.16;100108.85;217275;1268;141633;-69
2023/10/09 12:06:42;;;;;;;1.20;0.80;;;;;;;11.44;69.70;100106.40;216417;1268;140726;-67
2023/10/09 12:11:52;;;;;;;2.40;1.30;;;;;;;11.41;69.02;100092.73;216503;1272;140882;-71
2023/10/09 12:17:08;;;;;;;1.90;1.10;;;;;;;11.51;68.77;100085.80;217817;1269;140306;-69
2023/10/09 12:22:16;;;;;;;1.90;0.80;;;;;;;11.48;68.40;100070.70;216030;1271;142229;-70
2023/10/09 12:27:25;;;;;;;1.70;1.30;;;;;;;11.65;68.17;100068.01;217141;1268;139854;-68
2023/10/09 12:32:30;;;;;;;0.90;0.80;;;;;;;11.83;67.68;100072.22;216566;1268;140159;-69
2023/10/09 12:37:37;;;;;;;2.00;1.10;;;;;;;11.73;66.96;100070.58;216700;1270;142563;-69
2023/10/09 12:42:43;;;;;;;1.80;1.40;;;;;;;11.73;66.75;100064.33;215771;1269;140948;-70
2023/10/09 12:47:48;;;;;;;1.40;0.90;;;;;;;11.73;66.47;100056.98;216192;1270;140903;-69
2023/10/09 12:52:56;;;;;;;7.00;1.50;;;;;;;11.53;66.23;100060.31;216649;1270;139781;-68
2023/10/09 12:58:08;;;;;;;;;;;;;;;11.86;66.30;100054.11;216232;1270;139629;-68
2023/10/09 13:03:19;;;;;;;1.20;1.10;;;;;;;12.16;65.92;100053.73;216436;1268;126112;-68
2023/10/09 13:08:39;;;;;;;1.00;1.00;;;;;;;12.18;65.48;100054.55;215722;1272;140454;-68
2023/10/09 13:13:50;;;;;;;1.20;1.00;;;;;;;12.03;65.58;100059.33;216826;1271;139236;-68
2023/10/09 13:19:09;;;;;;;2.50;0.90;;;;;;;12.03;65.52;100057.98;216278;1268;139160;-68
2023/10/09 13:24:15;;;;;;;0.70;0.70;;;;;;;12.13;65.15;100057.61;216695;1268;140578;-68
2023/10/09 13:29:22;;;;;;;1.60;1.50;;;;;;;12.23;65.06;100046.75;216228;1267;244953;-68
2023/10/09 13:34:28;;;;;;;0.70;0.70;;;;;;;12.46;64.55;100036.00;218664;1269;141581;-68
2023/10/09 13:39:38;;;;;;;0.60;0.60;;;;;;;12.37;63.94;100025.25;218769;1269;140823;-69
2023/10/09 13:44:48;;;;;;;5.50;1.40;;;;;;;12.13;64.11;100019.30;218821;1268;139845;-69
2023/10/09 13:49:57;;;;;;;1.40;0.90;;;;;;;12.00;64.06;100004.02;218809;1270;140455;-69
2023/10/09 13:55:16;;;;;;;1.60;1.30;;;;;;;11.54;63.52;99994.35;216325;1270;139321;-69
2023/10/09 14:00:34;;;;;;;2.10;1.30;;;;;;;11.12;63.88;99986.51;217948;1269;139923;-69
2023/10/09 14:06:10;;;;;;;1.20;1.10;;;;;;;10.83;64.42;99993.84;216360;1268;140130;-69
2023/10/09 14:11:13;;;;;;;1.90;1.50;;;;;;;10.67;64.77;100000.43;216513;1269;139483;-70
2023/10/09 14:16:27;;;;;;;1.60;1.30;;;;;;;10.85;65.14;100000.30;217296;1269;139578;-71
2023/10/09 14:21:37;;;;;;;3.60;2.00;;;;;;;11.00;65.21;100009.35;217351;1268;140643;-69
2023/10/09 14:26:48;;;;;;;1.80;1.20;;;;;;;10.94;65.30;100006.71;216555;1268;139562;-70
2023/10/09 14:32:01;;;;;;;3.20;1.70;;;;;;;10.69;65.10;100002.19;216605;1268;139549;-69
2023/10/09 14:37:11;;;;;;;2.60;1.90;;;;;;;10.31;65.23;100011.92;217114;1267;140715;-69
2023/10/09 14:42:20;;;;;;;2.30;2.00;;;;;;;10.18;65.60;100007.83;217023;1272;139839;-68
2023/10/09 14:47:26;;;;;;;2.60;2.40;;;;;;;10.00;65.67;100019.16;217226;1268;139543;-69
2023/10/09 14:52:32;;;;;;;2.30;1.90;;;;;;;10.12;66.07;100012.33;216954;1269;140868;-68
2023/10/09 14:57:38;;;;;;;2.30;2.00;;;;;;;10.39;66.55;100021.77;216126;1268;140260;-71
2023/10/09 15:02:48;;;;;;;3.00;2.70;;;;;;;10.63;66.74;100028.87;216931;1268;140477;-69
2023/10/09 15:07:53;;;;;;;3.10;2.40;;;;;;;10.72;65.99;100026.79;217642;1267;141343;-67
2023/10/09 15:13:00;;;;;;;2.70;2.40;;;;;;;10.70;65.85;100031.70;216731;1269;140969;-68
2023/10/09 15:18:08;;;;;;;3.70;2.60;;;;;;;10.63;66.22;100040.80;217599;1268;141122;-69
2023/10/09 15:23:19;;;;;;;3.60;3.20;;;;;;;10.61;66.41;100049.16;217540;1270;141136;-67
2023/10/09 15:28:32;;;;;;;2.60;2.40;;;;;;;10.48;66.10;100039.28;216937;1270;140914;-69
2023/10/09 15:33:39;;;;;;;2.20;2.00;;;;;;;10.22;66.30;100045.11;218414;1267;141480;-68
2023/10/09 15:38:45;;;;;;;4.00;2.70;;;;;;;9.98;66.50;100056.84;218175;1268;140288;-69
2023/10/09 15:43:51;;;;;;;3.00;2.70;;;;;;;9.77;67.13;100058.38;218284;1267;141049;-68
2023/10/09 15:49:00;;;;;;;2.90;2.70;;;;;;;9.66;67.77;100058.16;218108;1267;140205;-68
2023/10/09 15:54:10;;;;;;;3.40;3.00;;;;;;;9.53;68.04;100078.31;217323;1270;139931;-68
2023/10/09 15:59:17;;;;;;;4.10;2.40;;;;;;;9.35;68.42;100084.83;216982;1267;140138;-68
2023/10/09 16:04:24;;;;;;;4.10;3.30;;;;;;;9.15;68.67;100080.24;216494;1269;139497;-69
2023/10/09 16:09:43;;;;;;;3.40;2.50;;;;;;;8.85;68.51;100076.74;216371;1268;139695;-68
2023/10/09 16:14:51;;;;;;;2.90;2.70;;;;;;;8.44;68.72;100084.34;216288;1267;139799;-69
2023/10/09 16:19:59;;;;;;;4.60;2.90;;;;;;;8.08;69.02;100088.88;216203;1268;139629;-68
2023/10/09 16:25:09;;;;;;;6.10;2.40;;;;;;;7.81;69.90;100090.08;216097;1268;139553;-68
2023/10/09 16:30:21;;;;;;;6.70;3.50;;;;;;;7.53;70.07;100092.45;217014;1268;140132;-68
2023/10/09 16:35:26;;;;;;;2.70;2.30;;;;;;;7.23;70.28;100090.67;217176;1268;140224;-67
2023/10/09 16:40:34;;;;;;;5.60;3.00;;;;;;;7.03;70.73;100097.45;216199;1268;139228;-67
2023/10/09 16:45:43;;;;;;;3.10;2.80;;;;;;;6.87;71.17;100110.50;216362;1268;139159;-67
2023/10/09 16:50:53;;;;;;;3.40;2.60;;;;;;;6.70;71.42;100116.38;216951;1268;139699;-67
2023/10/09 16:56:01;;;;;;;3.50;3.00;;;;;;;6.52;71.81;100125.54;216399;1268;139530;-67
2023/10/09 17:01:13;;;;;;;3.30;3.00;;;;;;;6.34;71.90;100124.66;217501;1268;140661;-67
2023/10/09 17:06:21;;;;;;;7.50;2.60;;;;;;;6.13;71.84;100135.96;216601;1272;140385;-67
2023/10/09 17:11:28;;;;;;;3.90;3.60;;;;;;;5.94;72.57;100131.71;216953;1270;139890;-65
2023/10/09 17:16:34;;;;;;;4.90;4.40;;;;;;;5.85;72.54;100134.18;216217;1268;237074;-65
2023/10/09 17:21:41;;;;;;;6.90;5.30;;;;;;;5.74;73.09;100136.53;217240;1268;141285;-65
2023/10/09 17:26:50;;;;;;;8.40;6.00;;;;;;;5.60;72.88;100144.88;218670;1268;140246;-67
2023/10/09 17:31:56;;;;;;;7.80;5.80;;;;;;;5.42;72.79;100142.02;216824;1270;139608;-65
2023/10/09 17:37:05;;;;;;;9.80;6.80;;;;;;;5.28;73.70;100144.14;217693;1268;140225;-67
2023/10/09 17:42:10;;;;;;;12.20;7.30;;;;;;;5.18;73.50;100146.77;217691;1270;140886;-66
2023/10/09 17:47:15;;;;;;;8.40;5.80;;;;;;;5.05;73.72;100151.73;217162;1270;140019;-66
2023/10/09 17:52:21;;;;;;;6.50;5.90;;;;;;;4.89;73.79;100145.48;217085;1267;139899;-66
2023/10/09 17:57:27;;;;;;;8.30;5.60;;;;;;;4.85;74.55;100150.83;217654;1268;139477;-66
2023/10/09 18:02:34;;;;;;;11.50;6.60;;;;;;;4.79;74.42;100159.73;216725;1270;139519;-66
2023/10/09 18:07:43;;;;;;;19.70;12.00;;;;;;;4.71;74.46;100158.49;217341;1268;139601;-67
2023/10/09 18:12:53;;;;;;;15.00;10.90;;;;;;;4.48;73.99;100147.48;217545;1267;140377;-66
2023/10/09 18:17:59;;;;;;;9.60;6.80;;;;;;;4.31;74.39;100144.90;216810;1270;140765;-65
2023/10/09 18:23:06;;;;;;;8.10;6.90;;;;;;;4.26;75.23;100145.42;217460;1272;139968;-66
2023/10/09 18:28:14;;;;;;;8.70;6.70;;;;;;;4.22;75.04;100147.31;216593;1271;139615;-66
2023/10/09 18:33:19;;;;;;;;;;;;;;;4.08;75.09;100152.04;216977;1270;139806;-65
2023/10/09 18:38:23;;;;;;;12.00;7.10;;;;;;;3.94;75.21;100155.39;216788;1268;125602;-66
2023/10/09 18:43:30;;;;;;;10.00;8.00;;;;;;;3.89;75.48;100159.33;216351;1268;139556;-65
2023/10/09 18:48:35;;;;;;;14.50;10.90;;;;;;;3.80;75.51;100158.29;216520;1268;140208;-66
2023/10/09 18:53:40;;;;;;;17.30;12.00;;;;;;;3.72;75.53;100158.14;216650;1268;140616;-65
2023/10/09 18:58:46;;;;;;;21.80;12.50;;;;;;;3.60;75.77;100150.02;216871;1268;142179;-66
2023/10/09 19:03:51;;;;;;;27.40;15.00;;;;;;;3.57;76.22;100158.65;217561;1268;141540;-66
2023/10/09 19:09:06;;;;;;;23.90;15.60;;;;;;;3.54;76.49;100164.14;216216;1273;140430;-66
2023/10/09 19:14:13;;;;;;;30.40;19.60;;;;;;;3.49;76.32;100168.11;216495;1272;140018;-65
2023/10/09 19:19:25;;;;;;;34.10;20.80;;;;;;;3.39;76.19;100168.80;217331;1267;140407;-66
2023/10/09 19:24:30;;;;;;;32.40;20.90;;;;;;;3.29;76.22;100166.30;218402;1267;140838;-64
2023/10/09 19:29:37;;;;;;;33.00;19.20;;;;;;;3.19;76.17;100171.54;218467;1267;140446;-63
2023/10/09 19:34:45;;;;;;;30.30;19.40;;;;;;;3.10;76.49;100172.11;216662;1268;142071;-66
2023/10/09 19:39:49;;;;;;;33.10;19.30;;;;;;;2.99;76.51;100170.88;217913;1268;140008;-66
2023/10/09 19:44:55;;;;;;;35.80;19.70;;;;;;;2.90;76.67;100173.95;217052;1268;140422;-67
2023/10/09 19:50:15;;;;;;;34.40;23.70;;;;;;;2.89;76.88;100173.89;218495;1267;140103;-67
2023/10/09 19:55:21;;;;;;;36.30;19.40;;;;;;;2.85;76.94;100180.14;216884;1272;140792;-66
2023/10/09 20:00:32;;;;;;;27.80;17.50;;;;;;;2.75;76.98;100182.40;217490;1267;140401;-67
2023/10/09 20:05:39;;;;;;;36.40;21.20;;;;;;;2.67;77.25;100189.44;216348;1272;140738;-66
2023/10/09 20:10:49;;;;;;;26.60;15.90;;;;;;;2.66;77.48;100191.08;217518;1268;140684;-67
2023/10/09 20:15:58;;;;;;;36.70;20.80;;;;;;;2.55;76.97;100182.37;218398;1268;139855;-66
2023/10/09 20:21:09;;;;;;;34.80;20.30;;;;;;;2.45;77.18;100190.05;217724;1270;140622;-67
2023/10/09 20:26:15;;;;;;;36.90;23.30;;;;;;;2.47;77.77;100196.41;216724;1268;140714;-66
2023/10/09 20:31:23;;;;;;;38.70;22.80;;;;;;;2.42;77.49;100199.31;216671;1270;140772;-65
2023/10/09 20:36:31;;;;;;;39.00;23.00;;;;;;;2.35;77.90;100200.89;217220;1268;141614;-67
2023/10/09 20:41:38;;;;;;;46.60;21.90;;;;;;;2.27;77.71;100203.70;216126;1271;224987;-67
2023/10/09 20:46:47;;;;;;;53.00;25.40;;;;;;;2.18;77.56;100199.61;216296;1271;140173;-67
2023/10/09 20:51:53;;;;;;;54.40;29.90;;;;;;;2.08;77.86;100196.21;216691;1268;140044;-67
2023/10/09 20:57:02;;;;;;;44.70;24.10;;;;;;;2.06;78.07;100213.96;216994;1268;140394;-66
2023/10/09 21:02:09;;;;;;;43.70;23.10;;;;;;;1.99;77.96;100215.95;216511;1269;139954;-66
2023/10/09 21:07:15;;;;;;;36.20;21.60;;;;;;;1.89;78.14;100210.60;218162;1268;140405;-66
2023/10/09 21:12:20;;;;;;;49.20;27.60;;;;;;;1.78;77.98;100206.39;217897;1269;139881;-67
2023/10/09 21:17:25;;;;;;;33.60;23.70;;;;;;;1.74;78.46;100204.69;217850;1272;140429;-65
2023/10/09 21:22:29;;;;;;;33.30;24.60;;;;;;;1.71;78.13;100206.07;219037;1268;141920;-68
2023/10/09 21:27:33;;;;;;;35.90;20.80;;;;;;;1.63;78.13;100209.55;218789;1270;160112;-67
2023/10/09 21:32:41;;;;;;;40.70;24.20;;;;;;;1.55;78.26;100210.63;218086;1268;140643;-66
2023/10/09 21:37:52;;;;;;;29.90;19.50;;;;;;;1.54;78.61;100208.48;218775;1268;141607;-67
2023/10/09 21:43:07;;;;;;;31.60;21.00;;;;;;;1.49;78.69;100212.42;218549;1270;139831;-67
2023/10/09 21:48:11;;;;;;;29.70;19.50;;;;;;;1.52;78.78;100218.75;218564;1272;140424;-66
2023/10/09 21:53:17;;;;;;;26.20;19.80;;;;;;;1.54;78.75;100224.56;216236;1273;139687;-66
2023/10/09 21:58:23;;;;;;;35.50;22.70;;;;;;;1.50;78.81;100225.65;216449;1268;139474;-65
2023/10/09 22:03:31;;;;;;;42.50;23.20;;;;;;;1.46;78.96;100226.80;217148;1271;141722;-67
2023/10/09 22:08:37;;;;;;;38.10;23.90;;;;;;;1.41;79.37;100224.18;216496;1272;139967;-66
2023/10/09 22:13:41;;;;;;;38.80;22.80;;;;;;;1.37;79.45;100222.40;216017;1268;140777;-69
2023/10/09 22:18:51;;;;;;;33.00;22.40;;;;;;;1.37;79.62;100229.72;217977;1268;140230;-66
2023/10/09 22:24:17;;;;;;;33.30;20.90;;;;;;;1.34;79.41;100235.48;216685;1268;139830;-67
2023/10/09 22:29:27;;;;;;;36.30;23.10;;;;;;;1.26;79.13;100235.81;217263;1268;150659;-67
2023/10/09 22:34:36;;;;;;;35.90;20.40;;;;;;;1.18;79.24;100230.39;216453;1268;139607;-67
2023/10/09 22:39:42;;;;;;;29.00;19.30;;;;;;;1.18;79.88;100232.27;217298;1268;140606;-65
2023/10/09 22:44:47;;;;;;;30.50;18.70;;;;;;;1.19;79.83;100233.25;215989;1271;139848;-67
2023/10/09 22:49:52;;;;;;;33.60;18.10;;;;;;;1.15;79.48;100237.32;217074;1270;141379;-66
2023/10/09 22:55:05;;;;;;;28.50;18.40;;;;;;;1.09;79.64;100240.39;217544;1269;140171;-67
2023/10/09 23:00:35;;;;;;;34.00;19.80;;;;;;;1.08;79.68;100241.63;216834;1268;489367;-65
2023/10/09 23:05:43;;;;;;;30.90;21.20;;;;;;;1.11;80.34;100243.24;216674;1268;140343;-65
2023/10/09 23:10:52;;;;;;;33.20;20.70;;;;;;;1.06;80.22;100245.76;216213;1272;140369;-66
2023/10/09 23:16:07;;;;;;;46.70;21.20;;;;;;;1.03;80.19;100251.75;218029;1271;139638;-67
2023/10/09 23:22:03;;;;;;;32.40;18.30;;;;;;;1.04;80.04;100253.70;219048;1268;140518;-68
2023/10/09 23:27:02;;;;;;;32.30;20.50;;;;;;;1.04;80.24;100254.58;218568;1272;142198;-68
2023/10/09 23:32:31;;;;;;;42.30;23.60;;;;;;;1.09;80.37;100262.11;217979;1271;140002;-67
2023/10/09 23:37:37;;;;;;;37.40;21.00;;;;;;;1.14;80.38;100267.05;216452;1268;140909;-68
2023/10/09 23:42:57;;;;;;;35.10;21.40;;;;;;;1.09;79.99;100277.73;217143;1268;141181;-68
2023/10/09 23:48:11;;;;;;;37.40;21.60;;;;;;;1.02;80.26;100279.67;216679;1269;140709;-67
2023/10/09 23:53:16;;;;;;;33.00;22.30;;;;;;;0.94;80.15;100275.91;216625;1272;140680;-66
2023/10/09 23:58:33;;;;;;;41.50;22.60;;;;;;;0.88;80.60;100274.63;217638;1270;139540;-67
